createdAt,value
2023-02-19T00:00:23.957Z,93.43
2023-02-19T00:02:54.459Z,88.50
2023-02-19T00:05:24.658Z,92.38
2023-02-19T00:07:54.237Z,85.47
2023-02-19T00:10:23.902Z,92.18
2023-02-19T00:12:54.199Z,88.97
2023-02-19T00:15:23.843Z,88.55
2023-02-19T00:17:53.562Z,91.75
2023-02-19T00:20:23.147Z,89.47
2023-02-19T00:22:52.897Z,91.25
2023-02-19T00:25:22.632Z,88.75
2023-02-19T00:27:52.292Z,99.18
2023-02-19T00:30:22.053Z,88.45
2023-02-19T00:32:54.912Z,95.60
2023-02-19T00:35:24.790Z,86.93
2023-02-19T00:37:54.379Z,94.00
2023-02-19T00:40:24.545Z,89.18
2023-02-19T00:42:54.808Z,86.75
2023-02-19T00:45:24.684Z,94.72
2023-02-19T00:47:55.217Z,86.30
2023-02-19T00:50:24.860Z,97.13
2023-02-19T00:52:54.589Z,90.15
2023-02-19T00:55:24.269Z,97.70
2023-02-19T00:57:53.832Z,100.72
2023-02-19T01:00:23.503Z,100.00
2023-02-19T01:02:53.190Z,94.07
2023-02-19T01:05:22.731Z,95.57
2023-02-19T01:07:53.025Z,91.32
2023-02-19T01:10:22.777Z,96.57
2023-02-19T01:12:52.407Z,103.18
2023-02-19T01:15:22.315Z,101.47
2023-02-19T01:17:52.082Z,108.93
2023-02-19T01:20:21.785Z,110.07
2023-02-19T01:22:51.479Z,115.97
2023-02-19T01:25:21.475Z,112.97
2023-02-19T01:27:51.135Z,116.57
2023-02-19T01:30:20.936Z,105.70
2023-02-19T01:32:50.627Z,113.18
2023-02-19T01:35:20.314Z,105.22
2023-02-19T01:37:49.911Z,100.60
2023-02-19T01:40:19.812Z,106.72
2023-02-19T01:42:49.491Z,102.72
2023-02-19T01:45:34.149Z,100.88
2023-02-19T01:48:14.294Z,93.88
2023-02-19T01:50:49.434Z,90.75
2023-02-19T01:53:24.494Z,94.82
2023-02-19T01:55:58.344Z,93.72
2023-02-19T01:58:31.147Z,97.95
2023-02-19T02:01:01.792Z,99.35
2023-02-19T02:03:31.921Z,102.22
2023-02-19T02:06:24.907Z,110.80
2023-02-19T02:09:18.314Z,101.45
2023-02-19T02:11:51.695Z,97.43
2023-02-19T02:14:26.345Z,88.90
2023-02-19T02:17:22.837Z,93.00
2023-02-19T02:20:31.661Z,89.85
2023-02-19T02:23:38.917Z,98.40
2023-02-19T02:26:27.877Z,89.88
2023-02-19T02:29:34.497Z,92.80
2023-02-19T02:32:14.222Z,87.93
2023-02-19T02:35:09.573Z,82.93
2023-02-19T02:37:44.321Z,79.80
2023-02-19T02:40:15.983Z,90.80
2023-02-19T02:42:45.903Z,96.22
2023-02-19T02:45:38.361Z,114.57
2023-02-19T02:48:33.532Z,91.72
2023-02-19T02:51:28.612Z,102.10
2023-02-19T02:54:44.992Z,90.05
2023-02-19T02:57:16.553Z,88.30
2023-02-19T02:59:50.746Z,96.32
2023-02-19T03:02:25.877Z,93.95
2023-02-19T03:05:31.489Z,85.85
2023-02-19T03:08:32.077Z,86.22
2023-02-19T03:11:32.113Z,89.47
2023-02-19T03:14:34.403Z,83.47
2023-02-19T03:17:33.847Z,75.25
2023-02-19T03:20:07.921Z,81.63
2023-02-19T03:22:40.072Z,78.68
2023-02-19T03:25:41.379Z,63.90
2023-02-19T03:28:13.579Z,61.22
2023-02-19T03:30:49.277Z,64.05
2023-02-19T03:33:24.522Z,66.00
2023-02-19T03:36:00.115Z,61.15
2023-02-19T03:38:41.582Z,56.65
2023-02-19T03:41:50.416Z,57.90
2023-02-19T03:44:46.518Z,55.13
2023-02-19T03:47:33.283Z,54.35
2023-02-19T03:50:25.871Z,45.72
2023-02-19T03:53:34.632Z,50.22
2023-02-19T03:56:16.108Z,42.88
2023-02-19T03:59:00.633Z,44.55
2023-02-19T04:01:41.398Z,48.28
2023-02-19T04:04:44.896Z,45.28
2023-02-19T04:07:15.282Z,52.70
2023-02-19T04:09:49.069Z,55.88
2023-02-19T04:12:21.100Z,44.03
2023-02-19T04:15:06.038Z,42.38
2023-02-19T04:18:00.487Z,45.75
2023-02-19T04:20:33.382Z,47.05
2023-02-19T04:23:03.146Z,43.22
2023-02-19T04:25:34.969Z,42.60
2023-02-19T04:28:05.264Z,45.15
2023-02-19T04:30:35.097Z,40.08
2023-02-19T04:33:04.877Z,41.05
2023-02-19T04:35:36.093Z,43.30
2023-02-19T04:38:05.793Z,41.03
2023-02-19T04:40:35.490Z,42.63
2023-02-19T04:43:05.290Z,43.65
2023-02-19T04:45:34.962Z,42.63
2023-02-19T04:48:04.772Z,37.42
2023-02-19T04:50:34.624Z,44.10
2023-02-19T04:53:04.213Z,48.10
2023-02-19T04:55:33.834Z,47.67
2023-02-19T04:58:03.632Z,46.08
2023-02-19T05:00:35.570Z,42.47
2023-02-19T05:03:05.202Z,41.20
2023-02-19T05:05:34.886Z,45.50
2023-02-19T05:08:04.502Z,41.08
2023-02-19T05:10:35.463Z,41.40
2023-02-19T05:13:05.766Z,47.78
2023-02-19T05:15:35.376Z,40.72
2023-02-19T05:18:05.626Z,43.92
2023-02-19T05:20:35.456Z,42.55
2023-02-19T05:23:05.085Z,42.22
2023-02-19T05:25:34.782Z,44.72
2023-02-19T05:28:19.317Z,39.55
2023-02-19T05:30:51.495Z,44.70
2023-02-19T05:33:22.932Z,45.47
2023-02-19T05:35:55.727Z,42.88
2023-02-19T05:38:26.381Z,42.65
2023-02-19T05:40:56.020Z,41.92
2023-02-19T05:43:25.740Z,45.05
2023-02-19T05:45:55.332Z,42.00
2023-02-19T05:48:24.880Z,41.60
2023-02-19T05:50:54.550Z,44.45
2023-02-19T05:53:24.133Z,42.42
2023-02-19T05:55:53.712Z,41.33
2023-02-19T05:58:23.508Z,42.25
2023-02-19T06:00:53.813Z,43.08
2023-02-19T06:03:24.219Z,38.33
2023-02-19T06:05:53.907Z,38.42
2023-02-19T06:08:23.544Z,42.45
2023-02-19T06:10:53.146Z,40.83
2023-02-19T06:13:23.474Z,48.72
2023-02-19T06:15:53.046Z,43.30
2023-02-19T06:18:22.661Z,40.80
2023-02-19T06:20:52.613Z,39.92
2023-02-19T06:23:22.142Z,38.97
2023-02-19T06:25:51.652Z,40.97
2023-02-19T06:28:21.338Z,48.90
2023-02-19T06:30:51.572Z,44.03
2023-02-19T06:33:21.261Z,38.85
2023-02-19T06:35:50.940Z,42.03
2023-02-19T06:38:20.554Z,45.20
2023-02-19T06:40:50.205Z,47.58
2023-02-19T06:43:19.880Z,45.90
2023-02-19T06:45:49.472Z,38.58
2023-02-19T06:48:19.114Z,41.70
2023-02-19T06:50:48.753Z,39.38
2023-02-19T06:53:18.409Z,40.38
2023-02-19T06:55:57.280Z,43.10
2023-02-19T06:58:26.871Z,36.65
2023-02-19T07:00:56.879Z,39.53
2023-02-19T07:03:28.072Z,37.17
2023-02-19T07:05:57.696Z,40.88
2023-02-19T07:08:29.319Z,38.60
2023-02-19T07:11:02.255Z,43.63
2023-02-19T07:13:32.472Z,46.40
2023-02-19T07:16:04.554Z,41.97
2023-02-19T07:18:34.557Z,37.85
2023-02-19T07:21:12.031Z,39.20
2023-02-19T07:23:42.843Z,53.20
2023-02-19T07:26:20.695Z,41.75
2023-02-19T07:31:23.259Z,42.38
2023-02-19T07:33:53.505Z,37.00
2023-02-19T07:36:25.234Z,39.38
2023-02-19T07:39:02.051Z,41.90
2023-02-19T07:41:31.700Z,37.97
2023-02-19T07:44:01.388Z,43.85
2023-02-19T07:46:32.371Z,40.13
2023-02-19T07:49:02.752Z,39.13
2023-02-19T07:51:32.417Z,39.42
2023-02-19T07:54:02.212Z,41.67
2023-02-19T07:56:32.059Z,40.47
2023-02-19T07:59:03.020Z,40.58
2023-02-19T08:01:52.334Z,37.30
2023-02-19T08:04:22.007Z,35.35
2023-02-19T08:06:51.852Z,31.95
2023-02-19T08:09:21.503Z,31.38
2023-02-19T08:12:10.840Z,31.45
2023-02-19T08:14:41.047Z,36.60
2023-02-19T08:17:10.689Z,35.25
2023-02-19T08:19:40.486Z,37.97
2023-02-19T08:22:10.372Z,37.20
2023-02-19T08:24:44.511Z,35.17
2023-02-19T08:27:14.106Z,28.45
2023-02-19T08:29:43.747Z,30.45
2023-02-19T08:32:13.538Z,34.85
2023-02-19T08:34:43.119Z,36.50
2023-02-19T08:37:12.717Z,30.95
2023-02-19T08:39:42.386Z,33.03
2023-02-19T08:42:12.070Z,28.98
2023-02-19T08:44:41.709Z,29.10
2023-02-19T08:47:11.380Z,30.48
2023-02-19T08:49:40.963Z,28.17
2023-02-19T08:52:10.721Z,33.33
2023-02-19T08:54:40.443Z,32.03
2023-02-19T08:57:10.011Z,30.65
2023-02-19T08:59:39.682Z,26.23
2023-02-19T09:02:10.991Z,25.45
2023-02-19T09:04:40.970Z,26.52
2023-02-19T09:07:12.780Z,26.67
2023-02-19T09:09:42.930Z,27.55
2023-02-19T09:12:14.415Z,27.88
2023-02-19T09:14:44.741Z,22.85
2023-02-19T09:17:14.627Z,24.40
2023-02-19T09:19:44.396Z,22.00
2023-02-19T09:22:14.385Z,24.80
2023-02-19T09:24:45.578Z,24.35
2023-02-19T09:27:20.198Z,24.15
2023-02-19T09:29:49.981Z,22.70
2023-02-19T09:32:19.684Z,26.13
2023-02-19T09:34:49.376Z,23.48
2023-02-19T09:37:18.997Z,22.25
2023-02-19T09:39:48.744Z,23.13
2023-02-19T09:42:22.545Z,22.80
2023-02-19T09:44:54.995Z,21.92
2023-02-19T09:47:30.588Z,27.63
2023-02-19T09:50:07.279Z,25.55
2023-02-19T09:52:47.337Z,21.58
2023-02-19T09:55:38.625Z,22.73
2023-02-19T09:58:31.791Z,23.92
2023-02-19T10:01:04.834Z,20.30
2023-02-19T10:03:45.007Z,20.98
2023-02-19T10:06:29.031Z,22.60
2023-02-19T10:09:28.815Z,20.40
2023-02-19T10:12:00.675Z,19.50
2023-02-19T10:14:41.991Z,21.50
2023-02-19T10:17:25.231Z,22.38
2023-02-19T10:19:55.886Z,22.67
2023-02-19T10:22:26.438Z,19.27
2023-02-19T10:24:58.202Z,19.13
2023-02-19T10:27:35.510Z,22.75
2023-02-19T10:30:05.402Z,19.27
2023-02-19T10:32:35.170Z,20.75
2023-02-19T10:35:24.358Z,20.15
2023-02-19T10:37:55.037Z,20.55
2023-02-19T10:40:28.474Z,23.65
2023-02-19T10:43:07.102Z,20.58
2023-02-19T10:45:55.005Z,19.50
2023-02-19T10:48:32.594Z,27.58
2023-02-19T10:51:08.324Z,20.73
2023-02-19T10:53:49.811Z,20.30
2023-02-19T10:56:35.417Z,21.10
2023-02-19T10:59:26.437Z,20.25
2023-02-19T11:02:17.113Z,20.58
2023-02-19T11:05:18.145Z,21.38
2023-02-19T11:07:58.485Z,20.95
2023-02-19T11:10:33.005Z,23.38
2023-02-19T11:13:05.466Z,22.65
2023-02-19T11:15:37.468Z,26.65
2023-02-19T11:18:26.720Z,31.90
2023-02-19T11:21:00.154Z,22.98
2023-02-19T11:23:40.763Z,25.20
2023-02-19T11:26:23.558Z,23.55
2023-02-19T11:29:04.256Z,30.10
2023-02-19T11:31:37.790Z,28.67
2023-02-19T11:34:37.003Z,27.00
2023-02-19T11:37:16.755Z,24.92
2023-02-19T11:39:50.372Z,25.63
2023-02-19T11:42:44.966Z,30.63
2023-02-19T11:45:42.556Z,26.40
2023-02-19T11:51:39.922Z,31.73
2023-02-19T11:54:50.952Z,29.02
2023-02-19T11:57:42.690Z,27.35
2023-02-19T12:00:32.693Z,39.72
2023-02-19T12:03:36.659Z,25.50
2023-02-19T12:06:39.786Z,32.78
2023-02-19T12:09:35.374Z,38.17
2023-02-19T12:12:32.889Z,29.17
2023-02-19T12:15:37.357Z,36.92
2023-02-19T12:18:43.089Z,28.35
2023-02-19T12:21:48.873Z,31.83
2023-02-19T12:24:48.914Z,28.60
2023-02-19T12:27:56.957Z,39.97
2023-02-19T12:30:54.348Z,36.83
2023-02-19T12:33:58.777Z,31.17
2023-02-19T12:36:53.146Z,33.10
2023-02-19T12:39:50.313Z,34.63
2023-02-19T12:42:51.187Z,33.20
2023-02-19T12:46:00.592Z,31.00
2023-02-19T12:49:09.122Z,33.40
2023-02-19T12:51:52.186Z,34.17
2023-02-19T12:54:40.376Z,41.30
2023-02-19T12:57:27.119Z,36.67
2023-02-19T13:00:09.111Z,72.38
2023-02-19T13:02:55.887Z,67.82
2023-02-19T13:06:05.299Z,63.92
2023-02-19T13:09:07.481Z,62.80
2023-02-19T13:12:01.021Z,61.75
2023-02-19T13:14:45.709Z,57.65
2023-02-19T13:17:34.188Z,68.40
2023-02-19T13:20:43.581Z,52.63
2023-02-19T13:23:50.170Z,50.95
2023-02-19T13:26:59.137Z,59.85
2023-02-19T13:29:58.549Z,42.80
2023-02-19T13:33:00.319Z,56.13
2023-02-19T13:36:09.959Z,47.40
2023-02-19T13:38:46.091Z,48.28
2023-02-19T13:41:29.691Z,53.13
2023-02-19T13:44:06.463Z,47.42
2023-02-19T13:46:42.661Z,45.05
2023-02-19T13:49:43.628Z,48.58
2023-02-19T13:52:37.836Z,47.05
2023-02-19T13:55:52.725Z,41.65
2023-02-19T13:58:42.141Z,62.15
2023-02-19T14:01:13.255Z,55.47
2023-02-19T14:03:56.878Z,60.83
2023-02-19T14:06:28.529Z,67.00
2023-02-19T14:09:05.523Z,50.78
2023-02-19T14:12:04.603Z,55.35
2023-02-19T14:14:41.003Z,55.25
2023-02-19T14:17:39.316Z,50.60
2023-02-19T14:20:48.275Z,64.65
2023-02-19T14:23:25.834Z,55.55
2023-02-19T14:26:01.887Z,39.88
2023-02-19T14:28:46.480Z,120.13
2023-02-19T14:31:40.420Z,118.20
2023-02-19T14:34:28.704Z,101.97
2023-02-19T14:37:02.050Z,96.82
2023-02-19T14:39:39.527Z,86.85
2023-02-19T14:42:19.552Z,84.35
2023-02-19T14:44:54.102Z,97.30
2023-02-19T14:47:27.357Z,86.57
2023-02-19T14:50:04.711Z,75.38
2023-02-19T14:52:48.356Z,73.40
2023-02-19T14:55:31.394Z,76.30
2023-02-19T14:58:06.762Z,71.78
2023-02-19T15:00:40.943Z,64.72
2023-02-19T15:03:28.496Z,65.97
2023-02-19T15:06:14.932Z,67.53
2023-02-19T15:08:54.842Z,56.50
2023-02-19T15:11:26.529Z,62.67
2023-02-19T15:14:02.632Z,56.97
2023-02-19T15:16:34.800Z,62.78
2023-02-19T15:19:09.948Z,57.95
2023-02-19T15:21:45.496Z,61.45
2023-02-19T15:24:17.829Z,50.00
2023-02-19T15:26:52.798Z,38.40
2023-02-19T15:29:27.181Z,31.17
2023-02-19T15:32:00.079Z,32.42
2023-02-19T15:34:31.837Z,31.13
2023-02-19T15:37:05.656Z,35.70
2023-02-19T15:39:48.869Z,40.45
2023-02-19T15:42:23.479Z,28.13
2023-02-19T15:45:08.313Z,30.45
2023-02-19T15:47:50.862Z,28.52
2023-02-19T15:50:27.897Z,21.65
2023-02-19T15:53:31.296Z,23.13
2023-02-19T15:56:14.369Z,21.40
2023-02-19T15:59:14.602Z,25.45
2023-02-19T16:01:44.594Z,20.80
2023-02-19T16:04:19.993Z,28.17
2023-02-19T16:06:57.871Z,16.55
2023-02-19T16:09:40.347Z,24.60
2023-02-19T16:12:29.970Z,26.45
2023-02-19T16:14:59.599Z,26.35
2023-02-19T16:17:29.993Z,21.83
2023-02-19T16:20:04.305Z,23.95
2023-02-19T16:22:43.829Z,26.40
2023-02-19T16:25:26.839Z,20.60
2023-02-19T16:27:57.101Z,21.75
2023-02-19T16:30:33.073Z,21.83
2023-02-19T16:33:23.308Z,19.67
2023-02-19T16:35:54.081Z,17.33
2023-02-19T16:38:24.197Z,20.98
2023-02-19T16:41:10.940Z,18.92
2023-02-19T16:43:44.941Z,22.13
2023-02-19T16:46:15.498Z,18.00
2023-02-19T16:48:45.222Z,20.77
2023-02-19T16:51:25.918Z,21.98
2023-02-19T16:53:55.710Z,16.98
2023-02-19T16:56:25.515Z,24.25
2023-02-19T16:58:55.226Z,17.00
2023-02-19T17:01:25.360Z,17.73
2023-02-19T17:04:00.552Z,23.50
2023-02-19T17:06:30.488Z,19.40
2023-02-19T17:09:00.683Z,17.35
2023-02-19T17:11:30.317Z,17.05
2023-02-19T17:14:00.040Z,20.42
2023-02-19T17:16:41.814Z,20.73
2023-02-19T17:19:22.096Z,20.60
2023-02-19T17:21:51.858Z,15.05
2023-02-19T17:24:22.268Z,15.02
2023-02-19T17:26:52.043Z,20.38
2023-02-19T17:29:21.845Z,18.85
2023-02-19T17:31:51.734Z,16.05
2023-02-19T17:34:21.443Z,16.15
2023-02-19T17:36:51.187Z,13.63
2023-02-19T17:39:21.087Z,16.95
2023-02-19T17:41:51.559Z,17.80
2023-02-19T17:44:21.171Z,20.50
2023-02-19T17:46:51.160Z,16.13
2023-02-19T17:49:21.410Z,17.48
2023-02-19T17:51:51.062Z,16.02
2023-02-19T17:54:20.613Z,19.42
2023-02-19T17:56:50.281Z,19.60
2023-02-19T18:01:36.940Z,16.02
2023-02-19T18:06:26.331Z,17.02
2023-02-19T18:08:56.246Z,18.55
2023-02-19T18:11:25.926Z,17.45
2023-02-19T18:13:55.682Z,17.58
2023-02-19T18:18:47.044Z,27.27
2023-02-19T19:05:33.060Z,13.50
2023-02-19T19:08:03.476Z,17.63
2023-02-19T19:10:33.430Z,19.67
